createdAt,value
2019-04-30T00:02:12.105Z,43.00
2019-04-30T00:04:45.226Z,43.27
2019-04-30T00:07:17.466Z,43.30
2019-04-30T00:09:45.005Z,44.53
2019-04-30T00:12:15.665Z,44.07
2019-04-30T00:14:44.944Z,43.10
2019-04-30T00:17:17.190Z,38.90
2019-04-30T00:19:45.913Z,42.43
2019-04-30T00:22:15.853Z,41.83
2019-04-30T00:24:49.666Z,40.83
2019-04-30T00:27:15.229Z,42.40
2019-04-30T00:29:45.773Z,39.33
2019-04-30T00:32:15.956Z,42.87
2019-04-30T00:34:45.596Z,42.03
2019-04-30T00:37:18.685Z,44.43
2019-04-30T00:39:51.131Z,42.77
2019-04-30T00:42:18.718Z,36.13
2019-04-30T00:44:46.240Z,38.15
2019-04-30T00:47:15.403Z,36.60
2019-04-30T00:49:47.141Z,36.00
2019-04-30T00:52:15.576Z,41.80
2019-04-30T00:54:45.207Z,42.30
2019-04-30T00:57:15.152Z,40.43
2019-04-30T00:59:47.891Z,38.23
2019-04-30T01:02:32.209Z,39.20
2019-04-30T01:05:05.337Z,38.97
2019-04-30T01:07:32.777Z,38.43
2019-04-30T01:10:01.570Z,40.13
2019-04-30T01:12:35.838Z,39.80
2019-04-30T01:15:01.648Z,35.08
2019-04-30T01:17:31.188Z,36.08
2019-04-30T01:20:00.040Z,37.37
2019-04-30T01:22:32.777Z,37.33
2019-04-30T01:25:01.308Z,40.20
2019-04-30T01:27:30.649Z,37.63
2019-04-30T01:29:59.645Z,37.67
2019-04-30T01:32:28.632Z,36.50
2019-04-30T01:34:58.897Z,39.27
2019-04-30T01:37:31.352Z,35.93
2019-04-30T01:39:58.920Z,38.13
2019-04-30T01:42:28.770Z,36.15
2019-04-30T01:44:58.965Z,34.97
2019-04-30T01:47:29.527Z,35.90
2019-04-30T01:50:03.030Z,36.60
2019-04-30T01:52:49.366Z,35.08
2019-04-30T01:55:19.970Z,32.63
2019-04-30T01:57:59.137Z,32.97
2019-04-30T02:00:32.287Z,32.40
2019-04-30T02:03:01.025Z,31.37
2019-04-30T02:05:29.829Z,31.43
2019-04-30T02:07:58.647Z,28.57
2019-04-30T02:10:28.516Z,27.00
2019-04-30T02:12:59.073Z,27.93
2019-04-30T02:15:29.182Z,23.97
2019-04-30T02:17:58.886Z,24.40
2019-04-30T02:20:28.758Z,23.70
2019-04-30T02:22:58.891Z,24.07
2019-04-30T02:25:29.532Z,24.65
2019-04-30T02:27:59.100Z,24.10
2019-04-30T02:30:30.785Z,25.50
2019-04-30T02:33:00.543Z,24.75
2019-04-30T02:35:57.053Z,25.00
2019-04-30T02:38:31.177Z,25.90
2019-04-30T02:41:01.023Z,29.33
2019-04-30T02:43:31.423Z,26.25
2019-04-30T02:46:01.191Z,29.63
2019-04-30T02:48:31.490Z,28.97
2019-04-30T02:51:03.380Z,31.40
2019-04-30T02:54:13.950Z,30.13
2019-04-30T02:56:44.513Z,28.63
2019-04-30T02:59:13.255Z,28.97
2019-04-30T03:01:42.260Z,28.85
2019-04-30T03:04:11.368Z,28.73
2019-04-30T03:06:40.561Z,27.33
2019-04-30T03:09:10.996Z,28.37
2019-04-30T03:11:40.728Z,28.93
2019-04-30T03:14:30.057Z,29.05
2019-04-30T03:17:12.773Z,28.90
2019-04-30T03:20:05.208Z,28.03
2019-04-30T03:22:33.949Z,24.73
2019-04-30T03:25:02.947Z,24.82
2019-04-30T03:27:32.573Z,26.40
2019-04-30T03:30:01.394Z,26.53
2019-04-30T03:32:31.585Z,23.40
2019-04-30T03:35:03.053Z,22.83
2019-04-30T03:37:31.149Z,23.77
2019-04-30T03:40:00.639Z,22.03
2019-04-30T03:42:29.627Z,21.73
2019-04-30T03:44:59.289Z,22.90
2019-04-30T03:47:30.074Z,23.87
2019-04-30T03:50:00.122Z,15.37
2019-04-30T03:52:29.290Z,25.07
2019-04-30T03:54:59.658Z,23.20
2019-04-30T03:57:30.308Z,21.00
2019-04-30T03:59:59.501Z,22.37
2019-04-30T04:02:40.565Z,23.20
2019-04-30T04:05:24.441Z,21.48
2019-04-30T04:07:59.890Z,21.17
2019-04-30T04:10:43.636Z,20.40
2019-04-30T04:13:12.361Z,22.03
2019-04-30T04:15:41.510Z,17.57
2019-04-30T04:18:10.793Z,17.13
2019-04-30T04:20:42.885Z,16.87
2019-04-30T04:23:10.310Z,16.37
2019-04-30T04:25:39.990Z,17.20
2019-04-30T04:28:10.080Z,14.70
2019-04-30T04:30:39.215Z,14.90
2019-04-30T04:33:10.194Z,15.30
2019-04-30T04:35:39.797Z,15.30
2019-04-30T04:38:12.307Z,15.17
2019-04-30T04:40:40.058Z,16.80
2019-04-30T04:43:10.369Z,15.03
2019-04-30T04:45:40.479Z,17.43
2019-04-30T04:48:10.196Z,16.37
2019-04-30T04:50:40.048Z,17.83
2019-04-30T04:53:11.415Z,16.73
2019-04-30T04:55:40.042Z,21.53
2019-04-30T04:58:09.727Z,21.57
2019-04-30T05:00:39.470Z,22.63
2019-04-30T05:03:20.250Z,23.50
2019-04-30T05:05:49.924Z,21.57
2019-04-30T05:08:19.298Z,17.37
2019-04-30T05:10:49.490Z,24.10
2019-04-30T05:13:19.243Z,22.98
2019-04-30T05:15:51.256Z,25.97
2019-04-30T05:18:19.533Z,25.80
2019-04-30T05:20:49.062Z,24.47
2019-04-30T05:23:19.518Z,22.87
2019-04-30T05:25:49.081Z,22.43
2019-04-30T05:28:18.870Z,21.20
2019-04-30T05:30:49.415Z,19.87
2019-04-30T05:33:18.625Z,19.20
2019-04-30T05:35:49.468Z,18.87
2019-04-30T05:38:18.966Z,18.03
2019-04-30T05:40:49.601Z,18.23
2019-04-30T05:43:19.179Z,17.50
2019-04-30T05:45:49.208Z,17.30
2019-04-30T05:48:18.583Z,17.10
2019-04-30T05:50:51.493Z,16.70
2019-04-30T05:53:19.066Z,18.77
2019-04-30T05:55:49.406Z,16.53
2019-04-30T05:58:19.723Z,19.83
2019-04-30T06:00:49.978Z,18.53
2019-04-30T06:03:27.555Z,18.60
2019-04-30T06:05:49.553Z,20.63
2019-04-30T06:08:20.442Z,19.47
2019-04-30T06:10:54.065Z,22.15
2019-04-30T06:17:19.735Z,21.83
2019-04-30T06:19:48.812Z,21.77
2019-04-30T06:22:19.593Z,21.10
2019-04-30T06:24:49.529Z,20.88
2019-04-30T06:27:19.191Z,19.93
2019-04-30T06:29:48.971Z,21.57
2019-04-30T06:32:18.743Z,21.73
2019-04-30T06:34:49.760Z,16.00
2019-04-30T06:37:19.463Z,19.80
2019-04-30T06:39:50.023Z,19.30
2019-04-30T06:42:19.512Z,20.20
2019-04-30T06:44:49.936Z,19.63
2019-04-30T06:47:31.980Z,17.82
2019-04-30T06:49:50.944Z,18.20
2019-04-30T06:52:23.379Z,18.07
2019-04-30T06:54:50.456Z,17.40
2019-04-30T06:57:19.958Z,17.93
2019-04-30T06:59:51.209Z,13.13
2019-04-30T07:02:19.790Z,14.57
2019-04-30T07:04:49.313Z,14.87
2019-04-30T07:07:22.832Z,17.23
2019-04-30T07:10:01.876Z,16.23
2019-04-30T07:12:59.029Z,16.60
2019-04-30T07:15:29.625Z,15.20
2019-04-30T07:17:59.423Z,15.43
2019-04-30T07:20:29.136Z,16.53
2019-04-30T07:23:02.313Z,12.97
2019-04-30T07:25:29.389Z,15.33
2019-04-30T07:27:59.782Z,14.83
2019-04-30T07:30:30.999Z,17.30
2019-04-30T07:33:00.164Z,15.13
2019-04-30T07:35:29.323Z,15.40
2019-04-30T07:38:00.651Z,14.03
2019-04-30T07:40:29.335Z,14.38
2019-04-30T07:42:59.075Z,15.78
2019-04-30T07:45:29.484Z,12.73
2019-04-30T07:47:59.422Z,14.90
2019-04-30T07:50:31.217Z,14.27
2019-04-30T07:53:05.299Z,13.17
2019-04-30T07:55:29.635Z,13.37
2019-04-30T07:57:59.181Z,12.10
2019-04-30T08:00:30.979Z,12.90
2019-04-30T08:03:24.667Z,12.03
2019-04-30T08:05:55.610Z,12.33
2019-04-30T08:08:25.641Z,9.97
2019-04-30T08:10:55.165Z,10.13
2019-04-30T08:13:24.365Z,9.63
2019-04-30T08:15:53.473Z,8.75
2019-04-30T08:18:22.389Z,9.67
2019-04-30T08:20:51.200Z,10.13
2019-04-30T08:23:33.537Z,10.28
2019-04-30T08:25:50.545Z,10.40
2019-04-30T08:28:20.068Z,9.83
2019-04-30T08:30:49.086Z,10.50
2019-04-30T08:33:19.382Z,11.13
2019-04-30T08:35:49.954Z,10.37
2019-04-30T08:38:19.221Z,10.50
2019-04-30T08:40:55.959Z,10.33
2019-04-30T08:43:19.884Z,10.67
2019-04-30T08:45:49.388Z,10.48
2019-04-30T08:48:19.000Z,10.00
2019-04-30T08:50:49.423Z,10.90
2019-04-30T08:53:27.587Z,9.47
2019-04-30T08:55:49.415Z,10.47
2019-04-30T08:58:20.507Z,9.28
2019-04-30T09:00:49.018Z,8.30
2019-04-30T09:03:19.435Z,9.10
2019-04-30T09:06:11.239Z,8.57
2019-04-30T09:08:41.544Z,8.95
2019-04-30T09:11:22.380Z,8.35
2019-04-30T09:13:41.651Z,8.20
2019-04-30T09:16:10.365Z,8.50
2019-04-30T09:18:39.344Z,9.20
2019-04-30T09:21:08.964Z,8.60
2019-04-30T09:23:44.684Z,8.00
2019-04-30T09:26:08.843Z,7.63
2019-04-30T09:28:40.793Z,7.63
2019-04-30T09:31:08.789Z,7.50
2019-04-30T09:33:39.343Z,6.75
2019-04-30T09:36:09.203Z,7.05
2019-04-30T09:38:38.907Z,7.20
2019-04-30T09:41:09.324Z,6.20
2019-04-30T09:43:38.293Z,6.90
2019-04-30T09:46:18.745Z,6.05
2019-04-30T09:48:38.619Z,7.28
2019-04-30T09:51:10.276Z,6.83
2019-04-30T09:53:39.473Z,7.53
2019-04-30T09:56:09.604Z,8.83
2019-04-30T09:58:39.314Z,7.97
2019-04-30T10:01:09.469Z,7.90
2019-04-30T10:03:39.807Z,9.45
2019-04-30T10:06:09.584Z,9.33
2019-04-30T10:08:47.899Z,8.53
2019-04-30T10:11:18.321Z,9.43
2019-04-30T10:13:47.422Z,9.90
2019-04-30T10:16:35.264Z,9.70
2019-04-30T10:19:04.048Z,9.73
2019-04-30T10:21:32.866Z,9.88
2019-04-30T10:24:12.553Z,10.30
2019-04-30T10:26:32.202Z,9.37
2019-04-30T10:29:01.290Z,9.93
2019-04-30T10:31:30.062Z,9.55
2019-04-30T10:33:58.948Z,7.55
2019-04-30T10:36:29.515Z,9.27
2019-04-30T10:38:59.496Z,9.10
2019-04-30T10:41:29.709Z,10.03
2019-04-30T10:43:59.253Z,9.07
2019-04-30T10:46:27.985Z,11.73
2019-04-30T10:48:57.252Z,10.47
2019-04-30T10:51:28.725Z,10.33
2019-04-30T10:53:59.209Z,10.65
2019-04-30T10:56:29.118Z,10.87
2019-04-30T10:58:58.363Z,12.60
2019-04-30T11:01:29.180Z,12.70
2019-04-30T11:03:58.511Z,12.13
2019-04-30T11:06:28.856Z,12.53
2019-04-30T11:08:57.662Z,11.93
2019-04-30T11:11:28.304Z,13.22
2019-04-30T11:13:57.811Z,11.43
2019-04-30T11:16:26.593Z,12.67
2019-04-30T11:18:55.437Z,13.23
2019-04-30T11:21:24.669Z,13.20
2019-04-30T11:23:53.717Z,13.87
2019-04-30T11:26:23.246Z,14.20
2019-04-30T11:28:52.439Z,13.80
2019-04-30T11:31:45.767Z,14.33
2019-04-30T11:34:15.227Z,14.43
2019-04-30T11:36:44.017Z,15.07
2019-04-30T11:39:19.845Z,14.47
2019-04-30T11:41:49.152Z,13.57
2019-04-30T11:44:28.551Z,13.73
2019-04-30T11:47:30.857Z,13.33
2019-04-30T11:49:59.869Z,14.38
2019-04-30T11:52:28.861Z,14.80
2019-04-30T11:54:59.750Z,15.20
2019-04-30T11:57:29.776Z,14.00
2019-04-30T11:59:58.997Z,15.25
2019-04-30T12:02:35.963Z,15.20
2019-04-30T12:05:06.073Z,13.45
2019-04-30T12:08:06.512Z,14.70
2019-04-30T12:10:39.757Z,15.18
2019-04-30T12:13:24.243Z,14.83
2019-04-30T12:15:55.107Z,14.33
2019-04-30T12:18:24.226Z,15.50
2019-04-30T12:20:53.094Z,14.40
2019-04-30T12:23:21.901Z,15.75
2019-04-30T12:25:50.649Z,14.90
2019-04-30T12:28:19.592Z,15.07
2019-04-30T12:30:49.076Z,15.20
2019-04-30T12:33:19.148Z,14.03
2019-04-30T12:35:50.985Z,14.70
2019-04-30T12:38:19.256Z,15.90
2019-04-30T12:40:48.824Z,15.10
2019-04-30T12:43:17.545Z,14.98
2019-04-30T12:45:46.281Z,14.90
2019-04-30T12:48:39.674Z,15.43
2019-04-30T12:51:17.594Z,15.13
2019-04-30T12:53:51.813Z,14.43
2019-04-30T12:56:38.522Z,15.35
2019-04-30T12:59:07.437Z,14.93
2019-04-30T13:01:36.600Z,14.50
2019-04-30T13:04:05.589Z,15.03
2019-04-30T13:06:34.821Z,13.57
2019-04-30T13:09:10.316Z,15.73
2019-04-30T13:11:40.551Z,14.67
2019-04-30T13:14:10.550Z,14.87
2019-04-30T13:16:40.309Z,12.43
2019-04-30T13:19:09.369Z,12.57
2019-04-30T13:21:39.571Z,13.00
2019-04-30T13:24:08.664Z,12.27
2019-04-30T13:26:39.515Z,12.40
2019-04-30T13:29:13.387Z,14.20
2019-04-30T13:31:42.115Z,14.00
2019-04-30T13:34:30.115Z,13.73
2019-04-30T13:36:59.398Z,13.13
2019-04-30T13:39:48.097Z,13.28
2019-04-30T13:42:17.677Z,14.70
2019-04-30T13:44:42.981Z,14.78
2019-04-30T13:47:11.758Z,14.93
2019-04-30T13:49:40.557Z,16.60
2019-04-30T13:52:09.898Z,16.03
2019-04-30T13:54:38.717Z,20.50
2019-04-30T13:57:09.084Z,15.13
2019-04-30T13:59:38.234Z,16.47
2019-04-30T14:02:08.773Z,16.30
2019-04-30T14:04:50.285Z,14.27
2019-04-30T14:07:50.357Z,24.25
2019-04-30T14:10:19.569Z,14.50
2019-04-30T14:12:55.153Z,17.80
2019-04-30T14:15:24.216Z,16.33
2019-04-30T14:17:53.030Z,15.60
2019-04-30T14:20:22.160Z,17.43
2019-04-30T14:22:50.989Z,17.12
2019-04-30T14:25:19.708Z,16.02
2019-04-30T14:27:54.359Z,17.40
2019-04-30T14:30:20.364Z,16.70
2019-04-30T14:32:50.762Z,17.23
2019-04-30T14:35:19.648Z,17.25
2019-04-30T14:37:49.628Z,15.90
2019-04-30T14:40:20.444Z,16.93
2019-04-30T14:42:55.725Z,18.33
2019-04-30T14:45:30.518Z,17.13
2019-04-30T14:48:05.941Z,16.67
2019-04-30T14:50:35.796Z,16.23
2019-04-30T14:53:10.319Z,16.60
2019-04-30T14:56:08.500Z,17.93
2019-04-30T14:58:43.114Z,15.70
2019-04-30T15:01:30.050Z,15.67
2019-04-30T15:03:59.446Z,15.97
2019-04-30T15:06:28.477Z,14.90
2019-04-30T15:08:59.049Z,14.37
2019-04-30T15:11:28.849Z,16.53
2019-04-30T15:13:59.164Z,18.25
2019-04-30T15:16:28.103Z,18.73
2019-04-30T15:18:56.926Z,17.77
2019-04-30T15:21:26.006Z,17.27
2019-04-30T15:24:09.431Z,16.37
2019-04-30T15:26:41.223Z,18.23
2019-04-30T15:29:12.709Z,22.07
2019-04-30T15:31:42.556Z,17.23
2019-04-30T15:34:12.638Z,19.45
2019-04-30T15:36:41.770Z,19.07
2019-04-30T15:39:30.872Z,17.77
2019-04-30T15:42:00.242Z,18.17
2019-04-30T15:44:29.400Z,22.30
2019-04-30T15:47:00.360Z,23.80
2019-04-30T15:49:29.240Z,22.97
2019-04-30T15:51:58.379Z,26.93
2019-04-30T15:54:29.171Z,20.82
2019-04-30T15:57:00.259Z,33.00
2019-04-30T15:59:46.455Z,23.07
2019-04-30T16:02:52.949Z,24.60
2019-04-30T16:05:22.544Z,23.32
2019-04-30T16:08:10.279Z,28.80
2019-04-30T16:10:55.013Z,27.00
2019-04-30T16:13:25.674Z,21.43
2019-04-30T16:15:55.206Z,26.37
2019-04-30T16:18:26.128Z,19.77
2019-04-30T16:20:54.849Z,23.17
2019-04-30T16:23:23.636Z,20.13
2019-04-30T16:25:52.396Z,20.00
2019-04-30T16:28:21.469Z,19.90
2019-04-30T16:30:50.214Z,23.80
2019-04-30T16:33:19.449Z,25.10
2019-04-30T16:35:50.847Z,21.70
2019-04-30T16:38:20.921Z,25.87
2019-04-30T16:40:49.588Z,25.05
2019-04-30T16:43:18.620Z,22.53
2019-04-30T16:45:49.434Z,24.87
2019-04-30T16:48:19.406Z,25.33
2019-04-30T16:50:51.113Z,21.15
2019-04-30T16:53:18.900Z,24.50
2019-04-30T16:55:50.406Z,24.77
2019-04-30T16:58:19.597Z,25.07
2019-04-30T17:00:49.276Z,22.33
2019-04-30T17:03:31.316Z,21.37
2019-04-30T17:06:05.957Z,20.03
2019-04-30T17:08:45.574Z,22.37
2019-04-30T17:11:35.996Z,26.23
2019-04-30T17:14:06.920Z,23.70
2019-04-30T17:16:35.661Z,26.85
2019-04-30T17:19:04.391Z,36.30
2019-04-30T17:21:33.460Z,26.67
2019-04-30T17:24:02.537Z,27.67
2019-04-30T17:26:31.256Z,29.73
2019-04-30T17:28:59.993Z,28.03
2019-04-30T17:31:28.724Z,31.37
2019-04-30T17:33:57.465Z,31.03
2019-04-30T17:36:26.268Z,29.25
2019-04-30T17:38:54.997Z,30.90
2019-04-30T17:41:24.088Z,28.70
2019-04-30T17:43:52.881Z,33.73
2019-04-30T17:46:21.707Z,46.17
2019-04-30T17:48:50.423Z,73.17
2019-04-30T17:51:19.383Z,35.00
2019-04-30T17:54:16.452Z,31.53
2019-04-30T17:56:46.615Z,24.77
2019-04-30T17:59:15.724Z,25.80
2019-04-30T18:01:50.370Z,27.17
2019-04-30T18:04:22.040Z,31.80
2019-04-30T18:06:50.607Z,31.70
2019-04-30T18:09:20.308Z,26.42
2019-04-30T18:11:49.604Z,27.60
2019-04-30T18:14:18.794Z,25.67
2019-04-30T18:16:48.675Z,25.93
2019-04-30T18:19:25.193Z,24.97
2019-04-30T18:21:59.670Z,26.33
2019-04-30T18:24:49.239Z,24.30
2019-04-30T18:27:21.291Z,24.87
2019-04-30T18:29:50.985Z,25.40
2019-04-30T18:32:21.465Z,26.10
2019-04-30T18:34:50.273Z,27.20
2019-04-30T18:37:19.079Z,26.57
2019-04-30T18:39:48.037Z,28.37
2019-04-30T18:42:16.768Z,27.67
2019-04-30T18:44:45.516Z,27.10
2019-04-30T18:47:14.272Z,26.67
2019-04-30T18:49:42.984Z,26.83
2019-04-30T18:52:12.039Z,27.50
2019-04-30T18:54:42.761Z,27.40
2019-04-30T18:57:11.714Z,27.90
2019-04-30T18:59:40.441Z,29.18
2019-04-30T19:02:12.116Z,30.40
2019-04-30T19:04:41.007Z,28.93
2019-04-30T19:07:22.216Z,28.38
2019-04-30T19:10:01.649Z,31.17
2019-04-30T19:12:59.047Z,32.03
2019-04-30T19:16:14.825Z,35.35
2019-04-30T19:18:39.507Z,36.57
2019-04-30T19:21:09.084Z,37.90
2019-04-30T19:23:39.029Z,34.07
2019-04-30T19:26:07.922Z,34.67
2019-04-30T19:28:38.565Z,34.33
2019-04-30T19:31:11.329Z,33.87
2019-04-30T19:33:38.919Z,33.63
2019-04-30T19:36:09.792Z,56.77
2019-04-30T19:38:38.695Z,66.57
2019-04-30T19:41:09.064Z,62.13
2019-04-30T19:43:39.072Z,66.80
2019-04-30T19:46:09.182Z,60.73
2019-04-30T19:48:38.088Z,56.13
2019-04-30T19:51:08.717Z,45.97
2019-04-30T19:53:39.372Z,45.63
2019-04-30T19:56:08.341Z,42.50
2019-04-30T19:58:52.334Z,40.63
2019-04-30T20:01:09.388Z,39.93
2019-04-30T20:03:38.147Z,39.23
2019-04-30T20:06:08.920Z,37.27
2019-04-30T20:08:38.743Z,36.73
2019-04-30T20:11:07.857Z,37.10
2019-04-30T20:13:37.358Z,41.60
2019-04-30T20:16:09.695Z,41.93
2019-04-30T20:18:39.077Z,42.15
2019-04-30T20:21:11.900Z,41.60
2019-04-30T20:23:41.541Z,40.00
2019-04-30T20:26:10.352Z,38.90
2019-04-30T20:28:42.403Z,35.50
2019-04-30T20:31:11.613Z,33.73
2019-04-30T20:33:40.041Z,32.93
2019-04-30T20:36:09.282Z,32.10
2019-04-30T20:38:43.325Z,35.15
2019-04-30T20:41:12.457Z,31.30
2019-04-30T20:43:41.280Z,31.67
2019-04-30T20:46:10.068Z,32.73
2019-04-30T20:48:40.749Z,30.90
2019-04-30T20:51:09.677Z,31.67
2019-04-30T20:53:39.123Z,31.37
2019-04-30T20:56:09.317Z,32.50
2019-04-30T20:58:42.029Z,32.77
2019-04-30T21:01:09.587Z,33.37
2019-04-30T21:03:39.545Z,31.57
2019-04-30T21:06:08.875Z,32.65
2019-04-30T21:08:38.525Z,31.87
2019-04-30T21:11:09.282Z,32.10
2019-04-30T21:13:39.235Z,32.63
2019-04-30T21:16:09.846Z,33.00
2019-04-30T21:18:39.160Z,31.63
2019-04-30T21:21:07.999Z,31.97
2019-04-30T21:23:39.132Z,30.97
2019-04-30T21:26:08.561Z,29.17
2019-04-30T21:28:39.219Z,29.73
2019-04-30T21:31:26.075Z,30.90
2019-04-30T21:34:00.301Z,29.37
2019-04-30T21:36:29.020Z,30.23
2019-04-30T21:38:59.043Z,30.73
2019-04-30T21:41:29.662Z,31.10
2019-04-30T21:43:58.535Z,30.20
2019-04-30T21:46:29.119Z,29.20
2019-04-30T21:48:58.730Z,31.02
2019-04-30T21:51:27.624Z,31.30
2019-04-30T21:54:15.608Z,30.40
2019-04-30T21:56:44.330Z,29.95
2019-04-30T21:59:23.853Z,28.93
2019-04-30T22:01:43.657Z,28.47
2019-04-30T22:04:12.488Z,28.47
2019-04-30T22:06:41.541Z,33.63
2019-04-30T22:09:11.687Z,33.23
2019-04-30T22:11:40.407Z,31.83
2019-04-30T22:14:09.286Z,31.63
2019-04-30T22:16:39.712Z,32.30
2019-04-30T22:19:08.696Z,31.23
2019-04-30T22:21:39.465Z,30.60
2019-04-30T22:24:07.885Z,31.53
2019-04-30T22:26:36.597Z,32.60
2019-04-30T22:29:05.384Z,29.77
2019-04-30T22:31:34.121Z,33.00
2019-04-30T22:34:02.848Z,32.70
2019-04-30T22:36:39.386Z,32.45
2019-04-30T22:39:30.296Z,33.13
2019-04-30T22:42:29.791Z,31.97
2019-04-30T22:44:58.741Z,31.57
2019-04-30T22:47:27.718Z,32.30
2019-04-30T22:49:56.439Z,32.45
2019-04-30T22:52:25.325Z,32.57
2019-04-30T22:54:54.164Z,33.17
2019-04-30T22:57:22.929Z,31.50
2019-04-30T22:59:51.668Z,30.40
2019-04-30T23:02:30.303Z,31.13
2019-04-30T23:04:59.821Z,33.75
2019-04-30T23:07:28.641Z,31.50
2019-04-30T23:09:57.425Z,30.53
2019-04-30T23:12:26.592Z,30.80
2019-04-30T23:14:55.305Z,32.97
2019-04-30T23:17:24.684Z,33.75
2019-04-30T23:19:53.392Z,34.03
2019-04-30T23:22:22.194Z,35.17
2019-04-30T23:24:50.901Z,34.63
2019-04-30T23:27:19.639Z,34.65
2019-04-30T23:29:48.358Z,32.47
2019-04-30T23:32:17.148Z,33.33
2019-04-30T23:34:45.864Z,35.20
2019-04-30T23:37:14.601Z,33.90
2019-04-30T23:39:43.381Z,33.27
2019-04-30T23:42:12.105Z,33.90
2019-04-30T23:44:40.820Z,33.87
2019-04-30T23:47:09.567Z,33.28
2019-04-30T23:49:38.282Z,32.53
2019-04-30T23:52:06.997Z,32.50
2019-04-30T23:54:35.700Z,32.13
2019-04-30T23:57:04.514Z,29.63
2019-04-30T23:59:33.225Z,31.27
